Khewra Weather



Khewra's Current Weather

Temprature 27.962o overcast clouds

overcast clouds

Rain: 0 %

Min Temprature27.962o
Max Temprature27.962o
Humidity43
Wind Speed2.91 m/h
Sun Rise05:04:34
Sun Set19:05:14
Current Time: 24-May-2019 04:11:42
Lat/Lon: 32.65, 73.01




Khewra's Geo Location



Khewra's Weather Forecast

Time Overall Temp Min Temp Max Temp Humidity Wind Speed Rain
24-May-2019 (Fri)
05:00:00 overcast clouds 28.430 27.962 28.430 43 2.91 m/h 0 %
08:00:00 broken clouds 31.800 31.450 31.800 33 2.9 m/h 0 %
11:00:00 scattered clouds 35.280 35.050 35.280 24 3.1 m/h 0 %
14:00:00 clear sky 38.370 38.250 38.370 17 1.38 m/h 0 %
17:00:00 clear sky 37.450 37.450 37.450 17 2.31 m/h 0 %
20:00:00 few clouds 30.089 30.089 30.089 38 11.74 m/h 0 %
23:00:00 broken clouds 29.089 29.089 29.089 35 7.64 m/h 0 %
25-May-2019 (Sat)
02:00:00 overcast clouds 28.789 28.789 28.789 37 2.54 m/h 0 %
05:00:00 broken clouds 26.420 26.420 26.420 49 2.37 m/h 0 %
08:00:00 clear sky 32.038 32.038 32.038 33 3.88 m/h 0 %
11:00:00 clear sky 35.982 35.982 35.982 22 3.61 m/h 0 %
14:00:00 clear sky 38.280 38.280 38.280 15 3.78 m/h 0 %
17:00:00 clear sky 37.735 37.735 37.735 15 3.3 m/h 0 %
20:00:00 clear sky 33.287 33.287 33.287 20 2.01 m/h 0 %
23:00:00 clear sky 31.218 31.218 31.218 20 1.52 m/h 0 %
26-May-2019 (Sun)
02:00:00 clear sky 29.999 29.999 29.999 20 2 m/h 0 %
05:00:00 clear sky 28.750 28.750 28.750 24 2.98 m/h 0 %
08:00:00 scattered clouds 34.150 34.150 34.150 20 3.6 m/h 0 %
11:00:00 few clouds 37.479 37.479 37.479 14 3.74 m/h 0 %
14:00:00 clear sky 39.206 39.206 39.206 12 3.31 m/h 0 %
17:00:00 clear sky 39.150 39.150 39.150 12 3.8 m/h 0 %
20:00:00 clear sky 34.150 34.150 34.150 15 2.68 m/h 0 %
23:00:00 clear sky 32.150 32.150 32.150 13 2.86 m/h 0 %
27-May-2019 (Mon)
02:00:00 clear sky 29.850 29.850 29.850 16 3.1 m/h 0 %
05:00:00 clear sky 28.150 28.150 28.150 19 2.78 m/h 0 %
08:00:00 clear sky 33.950 33.950 33.950 15 4.32 m/h 0 %
11:00:00 clear sky 38.560 38.560 38.560 11 3.21 m/h 0 %
14:00:00 clear sky 40.640 40.640 40.640 8 2.71 m/h 0 %
17:00:00 clear sky 40.450 40.450 40.450 9 3.56 m/h 0 %
20:00:00 clear sky 34.914 34.914 34.914 13 3.52 m/h 0 %
23:00:00 clear sky 32.587 32.587 32.587 11 3.01 m/h 0 %
28-May-2019 (Tue)
02:00:00 clear sky 30.691 30.691 30.691 10 2.63 m/h 0 %
05:00:00 clear sky 28.994 28.994 28.994 13 3.66 m/h 0 %
08:00:00 clear sky 34.253 34.253 34.253 12 2.54 m/h 0 %
11:00:00 clear sky 39.522 39.522 39.522 8 2.14 m/h 0 %
14:00:00 clear sky 42.394 42.394 42.394 7 1.32 m/h 0 %
17:00:00 clear sky 41.304 41.304 41.304 7 2.28 m/h 0 %
20:00:00 clear sky 36.127 36.127 36.127 11 3.09 m/h 0 %
23:00:00 clear sky 33.598 33.598 33.598 11 2.99 m/h 0 %
29-May-2019 (Wed)
02:00:00 clear sky 31.829 31.829 31.829 11 3.55 m/h 0 %

Famous Cities (60)